Time;durP1;ratioP1;P1;durP2;ratioP2;P2;SDS_P1;SDS_P2;PMS_P1;PMS_P2;Temp;Humidity;BMP_temperature;BMP_pressure;BME280_temperature;BME280_humidity;BME280_pressure;Samples;Min_cycle;Max_cycle;Signal;HPM_P1;HPM_P2
2023/12/07 00:02:47;;;;;;;9.00;5.63;;;17.60;71.20;;;;;;10568103;27;20777;-55
2023/12/07 00:07:49;;;;;;;9.98;5.32;;;17.60;71.20;;;;;;10565243;27;20049;-54
2023/12/07 00:12:52;;;;;;;8.07;5.07;;;17.60;71.20;;;;;;10566664;27;20051;-55
2023/12/07 00:17:54;;;;;;;8.38;4.22;;;17.50;71.20;;;;;;10565347;28;20059;-54
2023/12/07 00:22:56;;;;;;;9.32;4.90;;;17.50;71.10;;;;;;10573239;28;20047;-53
2023/12/07 00:28:00;;;;;;;6.05;3.85;;;17.50;71.10;;;;;;10571355;27;20051;-56
2023/12/07 00:33:02;;;;;;;6.85;3.60;;;17.50;71.10;;;;;;10572481;27;20047;-56
2023/12/07 00:38:05;;;;;;;7.22;4.00;;;17.40;71.10;;;;;;10573613;27;20501;-50
2023/12/07 00:43:09;;;;;;;8.10;4.13;;;17.40;71.10;;;;;;10571384;27;20051;-54
2023/12/07 00:48:11;;;;;;;8.38;3.88;;;17.40;71.10;;;;;;10574431;27;20057;-53
2023/12/07 00:53:13;;;;;;;6.50;4.03;;;17.40;71.00;;;;;;10578138;27;20043;-55
2023/12/07 00:58:16;;;;;;;11.50;3.92;;;17.40;71.00;;;;;;10569748;27;20059;-56
2023/12/07 01:03:18;;;;;;;6.10;3.95;;;17.40;70.90;;;;;;10572752;27;20630;-51
2023/12/07 01:08:21;;;;;;;6.82;3.83;;;17.40;70.90;;;;;;10574208;27;20193;-53
2023/12/07 01:13:24;;;;;;;7.68;3.65;;;17.40;70.90;;;;;;10579132;27;20414;-53
2023/12/07 01:18:26;;;;;;;6.65;4.05;;;17.30;70.90;;;;;;10566247;27;20074;-56
2023/12/07 01:23:28;;;;;;;7.35;3.70;;;17.30;70.80;;;;;;10574356;27;20052;-56
2023/12/07 01:28:32;;;;;;;5.25;3.58;;;17.30;70.80;;;;;;10570706;27;20878;-54
2023/12/07 01:33:34;;;;;;;6.25;3.50;;;17.30;70.80;;;;;;10574277;27;20051;-54
2023/12/07 01:38:36;;;;;;;6.83;4.03;;;17.30;70.80;;;;;;10573465;27;20119;-55
2023/12/07 01:43:45;;;;;;;6.20;3.23;;;17.30;70.70;;;;;;10575631;27;20522;-53
2023/12/07 01:48:49;;;;;;;5.00;3.10;;;17.30;71.00;;;;;;10573176;27;20058;-56
2023/12/07 01:53:51;;;;;;;6.05;3.03;;;17.30;71.20;;;;;;10579685;27;20131;-54
2023/12/07 01:58:55;;;;;;;;;;;17.30;71.20;;;;;;10574561;27;20035;-55
2023/12/07 02:03:57;;;;;;;4.18;3.10;;;17.40;71.40;;;;;;10569052;27;20027;-54
2023/12/07 02:08:59;;;;;;;5.20;2.80;;;17.40;71.40;;;;;;10577174;27;20135;-55
2023/12/07 02:14:03;;;;;;;4.43;2.53;;;17.30;71.40;;;;;;10573217;27;20078;-52
2023/12/07 02:19:26;;;;;;;7.43;3.08;;;17.40;71.60;;;;;;10559795;27;20044;-55
2023/12/07 02:24:31;;;;;;;4.57;2.40;;;17.30;71.40;;;;;;10556406;27;20058;-54
2023/12/07 02:29:35;;;;;;;4.97;2.67;;;17.20;71.30;;;;;;10561449;27;20050;-52
2023/12/07 02:34:37;;;;;;;4.63;2.60;;;17.20;71.30;;;;;;10561962;27;20067;-55
2023/12/07 02:39:39;;;;;;;4.93;3.00;;;17.20;71.30;;;;;;10561395;27;20533;-55
2023/12/07 02:44:43;;;;;;;3.00;2.13;;;17.20;71.30;;;;;;10565372;27;20039;-56
2023/12/07 02:49:45;;;;;;;4.75;2.30;;;17.10;71.20;;;;;;10565094;27;20043;-52
2023/12/07 02:54:48;;;;;;;3.95;2.13;;;17.10;71.20;;;;;;10562030;27;20101;-51
2023/12/07 02:59:51;;;;;;;4.40;2.33;;;17.10;71.10;;;;;;10562581;27;20124;-55
2023/12/07 03:04:53;;;;;;;3.63;2.17;;;17.10;71.00;;;;;;10563294;27;20169;-54
2023/12/07 03:09:55;;;;;;;3.63;1.92;;;17.10;71.00;;;;;;10576019;27;20043;-56
2023/12/07 03:14:59;;;;;;;3.17;2.03;;;17.00;71.00;;;;;;10571731;27;20134;-56
2023/12/07 03:20:01;;;;;;;3.67;2.58;;;17.10;71.00;;;;;;10570863;27;20629;-53
2023/12/07 03:25:03;;;;;;;3.20;2.40;;;17.10;71.00;;;;;;10559219;27;20051;-55
2023/12/07 03:30:08;;;;;;;3.15;2.22;;;17.00;70.90;;;;;;10565487;27;20873;-58
2023/12/07 03:35:10;;;;;;;4.57;2.40;;;17.00;70.90;;;;;;10562198;27;20054;-54
2023/12/07 03:40:12;;;;;;;4.50;2.10;;;17.00;70.90;;;;;;10560452;27;20054;-55
2023/12/07 03:45:16;;;;;;;;;;;16.90;70.90;;;;;;10569865;27;20183;-55
2023/12/07 03:50:18;;;;;;;2.72;1.67;;;17.00;70.90;;;;;;10565334;27;20063;-53
2023/12/07 03:55:20;;;;;;;3.83;1.97;;;16.90;70.90;;;;;;10554393;27;20055;-53
2023/12/07 04:15:31;;;;;;;3.10;1.73;;;16.90;70.10;;;;;;10534559;27;20181;-54
2023/12/07 04:20:33;;;;;;;3.67;2.17;;;16.90;70.70;;;;;;10540599;28;20044;-54
2023/12/07 04:25:35;;;;;;;4.03;2.07;;;16.90;70.70;;;;;;10545611;28;20052;-55
2023/12/07 04:30:39;;;;;;;3.43;1.87;;;16.90;70.30;;;;;;10546622;28;21513;-53
2023/12/07 04:35:41;;;;;;;7.05;2.22;;;17.00;70.10;;;;;;10544052;28;20507;-50
2023/12/07 04:40:43;;;;;;;4.72;2.25;;;17.20;69.60;;;;;;10541696;28;20054;-53
2023/12/07 04:45:47;;;;;;;2.50;1.90;;;17.40;69.30;;;;;;10539554;28;20381;-56
2023/12/07 04:50:49;;;;;;;2.58;1.90;;;17.60;69.10;;;;;;10548291;28;20044;-54
2023/12/07 04:55:51;;;;;;;2.42;1.90;;;17.70;68.80;;;;;;10540900;28;20052;-53
2023/12/07 05:00:54;;;;;;;3.37;2.17;;;17.90;68.60;;;;;;10542346;28;20916;-55
2023/12/07 05:05:56;;;;;;;3.63;2.47;;;17.90;68.40;;;;;;10537655;28;20481;-54
2023/12/07 05:10:58;;;;;;;4.15;2.35;;;18.10;68.30;;;;;;10538557;28;20118;-51
2023/12/07 05:16:02;;;;;;;4.20;2.65;;;18.10;68.20;;;;;;10538806;28;20059;-50
2023/12/07 05:21:05;;;;;;;4.07;2.22;;;18.10;68.20;;;;;;10534591;28;20051;-55
2023/12/07 05:26:07;;;;;;;;;;;18.20;68.30;;;;;;10514201;28;22640;-52
2023/12/07 05:31:17;;;;;;;2.40;1.83;;;18.20;68.30;;;;;;10510012;27;20011;-52
2023/12/07 05:36:19;;;;;;;4.28;2.42;;;18.20;68.40;;;;;;10502597;28;20044;-54
2023/12/07 05:41:21;;;;;;;3.10;2.15;;;18.20;68.30;;;;;;10506243;28;20537;-55
2023/12/07 05:46:24;;;;;;;3.05;1.85;;;18.20;68.40;;;;;;10509159;28;20048;-52
2023/12/07 05:51:26;;;;;;;4.25;2.25;;;18.10;68.50;;;;;;10509304;28;20090;-55
2023/12/07 05:56:28;;;;;;;3.42;2.28;;;18.10;68.60;;;;;;10507189;28;20071;-56
2023/12/07 06:01:32;;;;;;;3.50;2.20;;;18.00;68.50;;;;;;10508924;28;20051;-57
2023/12/07 06:06:34;;;;;;;2.78;2.00;;;18.00;68.60;;;;;;10505145;28;20059;-56
2023/12/07 06:11:36;;;;;;;3.67;2.03;;;18.00;68.70;;;;;;10506113;28;20419;-56
2023/12/07 06:16:39;;;;;;;2.95;1.92;;;18.00;68.70;;;;;;10510083;28;20529;-55
2023/12/07 06:21:41;;;;;;;5.68;1.90;;;18.00;68.70;;;;;;10507491;28;20063;-58
2023/12/07 06:26:43;;;;;;;3.20;2.30;;;18.00;68.70;;;;;;10497962;28;20074;-53
2023/12/07 06:31:46;;;;;;;2.55;2.03;;;18.00;69.20;;;;;;10503647;28;21019;-54
2023/12/07 06:36:48;;;;;;;2.75;1.80;;;18.00;68.70;;;;;;10502778;28;20045;-55
2023/12/07 06:41:50;;;;;;;3.03;2.10;;;18.00;68.70;;;;;;10502398;28;20130;-56
2023/12/07 06:46:54;;;;;;;5.07;2.10;;;18.00;68.90;;;;;;10504277;28;20122;-55
2023/12/07 06:51:56;;;;;;;4.20;2.47;;;18.00;68.90;;;;;;10490084;28;20994;-53
2023/12/07 06:56:57;;;;;;;3.63;2.13;;;18.00;68.90;;;;;;10513016;28;20063;-54
2023/12/07 07:02:02;;;;;;;3.45;1.98;;;17.90;69.20;;;;;;10507586;28;20884;-53
2023/12/07 07:07:04;;;;;;;5.50;2.15;;;17.90;69.10;;;;;;10501920;28;20052;-55
2023/12/07 07:12:06;;;;;;;6.95;1.95;;;17.80;69.20;;;;;;10504537;28;20047;-55
2023/12/07 07:17:09;;;;;;;3.72;2.00;;;17.80;69.40;;;;;;10511218;28;20075;-51
2023/12/07 07:22:11;;;;;;;4.68;2.55;;;17.80;69.40;;;;;;10509368;28;20144;-51
2023/12/07 07:27:13;;;;;;;4.88;2.63;;;17.80;69.10;;;;;;10506801;28;20060;-50
2023/12/07 07:32:17;;;;;;;7.10;2.58;;;17.80;69.10;;;;;;10508954;28;20047;-50
2023/12/07 07:37:19;;;;;;;3.28;2.30;;;17.80;69.30;;;;;;10506675;28;20135;-52
2023/12/07 07:42:21;;;;;;;4.03;2.35;;;17.80;68.90;;;;;;10501100;28;20125;-54
2023/12/07 07:47:24;;;;;;;4.43;2.60;;;17.70;69.20;;;;;;10494294;28;20155;-54
2023/12/07 07:52:26;;;;;;;5.60;3.13;;;17.70;69.20;;;;;;10502346;28;20048;-54
2023/12/07 07:57:28;;;;;;;4.10;2.83;;;17.70;69.40;;;;;;10508780;28;20044;-57
2023/12/07 08:02:32;;;;;;;5.40;2.70;;;17.60;69.50;;;;;;10505265;28;20829;-52
2023/12/07 08:07:34;;;;;;;5.25;2.78;;;17.60;69.40;;;;;;10501244;28;20113;-54
2023/12/07 08:12:36;;;;;;;5.27;2.93;;;17.60;69.40;;;;;;10498497;28;20078;-56
2023/12/07 08:17:40;;;;;;;5.50;3.10;;;17.50;69.70;;;;;;10502194;28;20048;-53
2023/12/07 08:22:42;;;;;;;4.22;2.42;;;17.50;69.60;;;;;;10506055;28;20526;-53
2023/12/07 08:27:45;;;;;;;4.85;3.00;;;17.50;69.30;;;;;;10506616;28;20056;-54
2023/12/07 08:32:49;;;;;;;4.35;3.03;;;17.50;69.50;;;;;;10505256;28;20105;-53
2023/12/07 08:37:51;;;;;;;4.82;2.95;;;17.50;69.40;;;;;;10498048;28;20063;-54
2023/12/07 08:42:55;;;;;;;3.72;2.60;;;17.40;69.50;;;;;;10502195;28;20553;-52
2023/12/07 08:47:59;;;;;;;5.43;3.33;;;17.40;69.60;;;;;;10500369;28;20052;-55
2023/12/07 08:53:01;;;;;;;4.05;2.67;;;17.40;69.50;;;;;;10500856;28;20044;-53
2023/12/07 08:58:04;;;;;;;4.67;2.97;;;17.40;69.60;;;;;;10502858;28;21299;-53
2023/12/07 09:03:07;;;;;;;5.68;3.33;;;17.40;70.10;;;;;;10504969;28;20893;-53
2023/12/07 09:08:09;;;;;;;7.80;2.65;;;17.40;69.70;;;;;;10503596;28;20050;-53
2023/12/07 09:13:11;;;;;;;4.57;2.83;;;17.30;69.90;;;;;;10504054;28;20082;-52
2023/12/07 09:18:15;;;;;;;5.78;3.53;;;17.30;70.10;;;;;;10504192;28;20153;-58
2023/12/07 09:23:17;;;;;;;7.45;3.17;;;17.20;69.90;;;;;;10514828;28;20082;-53
2023/12/07 09:28:19;;;;;;;8.77;3.63;;;17.20;70.40;;;;;;10514050;28;20047;-54
2023/12/07 09:33:23;;;;;;;6.22;3.22;;;17.20;70.70;;;;;;10512081;28;20514;-55
2023/12/07 09:38:26;;;;;;;6.32;3.63;;;17.20;71.00;;;;;;10514376;28;20065;-59
2023/12/07 09:43:28;;;;;;;6.57;4.13;;;17.20;71.20;;;;;;10526293;28;20126;-55
2023/12/07 09:48:32;;;;;;;7.37;3.93;;;17.20;71.50;;;;;;10514528;28;20812;-55
2023/12/07 09:53:35;;;;;;;7.28;3.70;;;17.30;71.60;;;;;;10504485;28;20481;-54
2023/12/07 09:58:37;;;;;;;7.18;4.13;;;17.20;71.50;;;;;;10505026;28;20186;-54
2023/12/07 10:03:41;;;;;;;10.15;4.18;;;17.20;71.60;;;;;;10504049;28;20051;-54
2023/12/07 10:08:46;;;;;;;8.23;4.38;;;17.20;71.60;;;;;;10499814;28;20560;-54
2023/12/07 10:13:49;;;;;;;7.93;4.53;;;17.20;71.60;;;;;;10499898;28;20056;-55
2023/12/07 10:18:53;;;;;;;6.53;3.92;;;17.20;71.70;;;;;;10496958;28;20060;-52
2023/12/07 10:23:55;;;;;;;5.80;4.05;;;17.20;71.70;;;;;;10500938;28;20158;-56
2023/12/07 10:28:59;;;;;;;6.85;3.45;;;17.20;71.70;;;;;;10500498;28;20792;-55
2023/12/07 10:34:02;;;;;;;7.45;4.20;;;17.20;71.40;;;;;;10501556;28;20059;-57
2023/12/07 10:39:06;;;;;;;6.80;4.57;;;17.30;71.90;;;;;;10499172;28;23044;-57
2023/12/07 10:44:09;;;;;;;5.95;3.83;;;17.30;71.20;;;;;;10503742;28;20862;-54
2023/12/07 10:49:20;;;;;;;12.23;4.75;;;17.20;71.20;;;;;;10502606;28;20125;-55
2023/12/07 10:54:28;;;;;;;5.35;3.85;;;17.20;71.20;;;;;;10496671;28;20044;-54
2023/12/07 10:59:33;;;;;;;5.93;3.63;;;17.20;71.10;;;;;;10501974;28;20149;-56
2023/12/07 11:04:37;;;;;;;6.80;3.20;;;17.20;71.40;;;;;;10497700;28;20052;-55
2023/12/07 11:09:45;;;;;;;7.70;3.60;;;17.20;71.50;;;;;;10502531;28;20052;-53
2023/12/07 11:14:47;;;;;;;5.93;3.45;;;17.20;71.60;;;;;;10499442;28;20055;-56
2023/12/07 11:19:51;;;;;;;9.52;3.60;;;17.20;71.60;;;;;;10505024;28;20056;-56
2023/12/07 11:24:57;;;;;;;8.73;3.40;;;17.20;71.50;;;;;;10497304;28;20040;-58
2023/12/07 11:30:01;;;;;;;6.20;3.03;;;17.20;71.50;;;;;;10500068;28;20052;-54
2023/12/07 11:35:06;;;;;;;5.25;3.72;;;17.20;71.40;;;;;;10499043;28;20047;-55
2023/12/07 11:40:09;;;;;;;6.75;2.95;;;17.20;71.30;;;;;;10496506;28;20052;-52
2023/12/07 11:45:12;;;;;;;4.10;2.65;;;17.20;71.10;;;;;;10489817;28;20043;-53
2023/12/07 11:50:15;;;;;;;;;;;17.20;70.90;;;;;;10492150;28;20047;-55
2023/12/07 11:55:17;;;;;;;9.55;4.55;;;17.20;70.70;;;;;;10493220;28;19928;-55
2023/12/07 12:00:20;;;;;;;6.43;3.28;;;17.20;70.60;;;;;;10499656;28;20048;-62
2023/12/07 12:05:23;;;;;;;13.27;4.85;;;17.20;70.80;;;;;;10501068;28;20122;-54
2023/12/07 12:10:26;;;;;;;7.88;4.63;;;17.30;71.90;;;;;;10505845;28;20052;-51
2023/12/07 12:15:29;;;;;;;8.43;4.30;;;17.40;71.00;;;;;;10510425;28;20728;-56
2023/12/07 12:20:32;;;;;;;9.52;4.50;;;17.30;71.10;;;;;;10506396;28;20304;-56
2023/12/07 12:25:35;;;;;;;8.05;4.18;;;17.20;71.20;;;;;;10497979;28;20040;-52
2023/12/07 12:30:37;;;;;;;;;;;17.20;71.30;;;;;;10500890;28;20750;-53
2023/12/07 12:35:40;;;;;;;4.78;3.50;;;17.20;71.30;;;;;;10502669;28;19995;-54
2023/12/07 12:40:42;;;;;;;6.63;3.70;;;17.20;71.30;;;;;;10509294;28;20814;-53
2023/12/07 12:45:45;;;;;;;6.63;4.00;;;17.20;71.40;;;;;;10514160;28;20055;-54
2023/12/07 12:50:49;;;;;;;5.93;3.75;;;17.20;71.50;;;;;;10504504;28;20059;-54
2023/12/07 12:55:51;;;;;;;7.78;3.67;;;17.10;71.60;;;;;;10508615;28;20059;-53
2023/12/07 13:00:53;;;;;;;6.72;3.40;;;17.10;71.60;;;;;;10503582;28;20591;-54
2023/12/07 13:05:56;;;;;;;;;;;17.10;71.70;;;;;;10510718;28;20040;-52
2023/12/07 13:10:58;;;;;;;;;;;17.00;71.60;;;;;;10505548;28;19924;-54
2023/12/07 13:16:00;;;;;;;5.93;3.85;;;17.00;71.80;;;;;;10507783;28;20001;-55
2023/12/07 13:21:04;;;;;;;6.53;3.90;;;17.00;71.70;;;;;;10508491;28;20495;-56
2023/12/07 13:26:06;;;;;;;5.15;3.03;;;17.00;71.70;;;;;;10497482;28;20711;-49
2023/12/07 13:31:08;;;;;;;6.00;3.13;;;17.00;71.90;;;;;;10501500;28;20060;-50
2023/12/07 13:36:12;;;;;;;6.00;3.10;;;17.20;71.70;;;;;;10504412;28;20825;-57
2023/12/07 13:41:14;;;;;;;8.90;3.10;;;17.30;71.70;;;;;;10504797;28;20044;-54
2023/12/07 13:46:16;;;;;;;7.35;3.10;;;17.50;71.30;;;;;;10503887;28;20055;-52
2023/12/07 13:51:20;;;;;;;8.40;3.28;;;17.80;71.50;;;;;;10502399;28;20056;-56
2023/12/07 13:56:23;;;;;;;5.45;3.03;;;18.00;70.70;;;;;;10501310;28;20056;-54
2023/12/07 14:01:26;;;;;;;7.15;2.63;;;18.10;70.60;;;;;;10506611;28;20225;-55
2023/12/07 14:06:29;;;;;;;4.88;3.22;;;18.20;70.10;;;;;;10503590;28;20892;-55
2023/12/07 14:11:31;;;;;;;8.27;3.63;;;18.20;70.10;;;;;;10505733;28;20087;-55
2023/12/07 14:16:33;;;;;;;6.18;2.97;;;18.30;69.50;;;;;;10504947;28;20048;-52
2023/12/07 14:21:36;;;;;;;4.43;2.60;;;18.30;69.30;;;;;;10509604;28;20063;-53
2023/12/07 14:26:39;;;;;;;6.20;3.17;;;18.30;69.50;;;;;;10505708;28;20048;-53
2023/12/07 14:31:41;;;;;;;;;;;18.20;69.60;;;;;;10508339;28;20059;-50
2023/12/07 14:36:45;;;;;;;8.27;4.85;;;18.20;69.60;;;;;;10500350;28;19928;-54
2023/12/07 14:41:48;;;;;;;4.75;2.90;;;18.20;69.60;;;;;;10499808;28;20048;-52
2023/12/07 14:46:50;;;;;;;5.65;3.47;;;18.10;69.90;;;;;;10460981;28;20528;-57
2023/12/07 14:51:56;;;;;;;9.50;2.70;;;18.10;70.00;;;;;;10466504;28;20048;-57
2023/12/07 14:56:58;;;;;;;5.05;2.17;;;18.20;70.10;;;;;;10465119;28;20056;-56
2023/12/07 15:02:00;;;;;;;5.25;2.75;;;18.20;69.90;;;;;;10457605;28;20044;-54
2023/12/07 15:07:04;;;;;;;4.63;1.70;;;18.30;69.90;;;;;;10455220;28;20068;-53
2023/12/07 15:12:07;;;;;;;5.95;1.95;;;18.20;69.80;;;;;;10458103;28;20455;-54
2023/12/07 15:17:09;;;;;;;7.22;2.45;;;18.20;69.80;;;;;;10458409;28;20049;-52
2023/12/07 15:22:13;;;;;;;5.30;1.92;;;18.20;69.90;;;;;;10465998;28;23272;-54
2023/12/07 15:27:15;;;;;;;4.47;2.05;;;18.20;69.80;;;;;;10464331;28;20055;-55
2023/12/07 15:32:17;;;;;;;4.50;1.85;;;18.30;69.80;;;;;;10464269;28;20049;-55
2023/12/07 15:37:20;;;;;;;8.63;2.13;;;18.20;69.90;;;;;;10463253;28;20052;-57
2023/12/07 15:42:22;;;;;;;8.05;3.25;;;18.20;69.90;;;;;;10463188;28;20055;-51
2023/12/07 15:47:24;;;;;;;2.10;0.50;;;18.20;70.10;;;;;;10458637;28;20411;-58
2023/12/07 15:52:28;;;;;;;3.22;1.48;;;18.20;70.00;;;;;;10460264;28;20095;-55
2023/12/07 15:57:29;;;;;;;6.93;2.13;;;18.20;69.90;;;;;;10465892;28;20044;-54
2023/12/07 16:02:32;;;;;;;5.32;1.42;;;18.10;70.00;;;;;;10461317;28;20094;-56
2023/12/07 16:07:38;;;;;;;2.42;1.65;;;18.10;70.10;;;;;;10455711;28;20045;-53
2023/12/07 16:12:40;;;;;;;3.28;2.00;;;18.10;70.10;;;;;;10460133;28;20049;-55
2023/12/07 16:17:42;;;;;;;4.90;1.88;;;18.00;70.30;;;;;;10459574;28;20057;-55
2023/12/07 16:22:46;;;;;;;4.88;2.20;;;18.00;70.20;;;;;;10458299;28;20975;-56
2023/12/07 16:27:48;;;;;;;5.22;1.85;;;18.00;70.10;;;;;;10464293;28;20051;-57
2023/12/07 16:32:50;;;;;;;3.87;1.97;;;18.00;70.20;;;;;;10461831;28;20052;-56
2023/12/07 16:37:53;;;;;;;3.33;1.85;;;18.10;70.20;;;;;;10460295;28;20493;-56
2023/12/07 16:42:56;;;;;;;8.63;2.25;;;18.10;70.30;;;;;;10457533;28;20051;-57
2023/12/07 16:47:58;;;;;;;7.43;2.10;;;18.00;70.20;;;;;;10453587;28;20037;-56
2023/12/07 16:53:02;;;;;;;4.70;1.80;;;17.90;70.10;;;;;;10455802;28;20151;-56
2023/12/07 16:58:04;;;;;;;4.95;2.28;;;17.90;70.50;;;;;;10455638;28;20041;-54
2023/12/07 17:03:06;;;;;;;7.88;3.45;;;17.90;70.40;;;;;;10463637;28;20546;-54
2023/12/07 17:08:09;;;;;;;9.95;3.92;;;17.60;70.30;;;;;;10463138;28;20516;-52
2023/12/07 17:13:12;;;;;;;4.47;3.20;;;17.40;70.90;;;;;;10453954;28;20199;-53
2023/12/07 17:18:14;;;;;;;8.32;3.47;;;17.60;71.20;;;;;;10455574;28;20045;-56
2023/12/07 17:23:18;;;;;;;13.13;7.55;;;17.60;71.00;;;;;;10462189;28;20871;-53
2023/12/07 17:28:20;;;;;;;9.15;5.32;;;17.50;71.20;;;;;;10456864;28;20044;-55
2023/12/07 17:33:22;;;;;;;10.25;5.47;;;17.50;71.10;;;;;;10459455;28;20056;-55
2023/12/07 17:38:25;;;;;;;9.63;3.92;;;17.40;71.30;;;;;;10456422;28;20048;-52
2023/12/07 17:43:28;;;;;;;9.18;4.78;;;17.40;71.20;;;;;;10461924;28;20084;-54
2023/12/07 17:48:30;;;;;;;10.45;3.78;;;17.40;71.20;;;;;;10462926;28;20049;-54
2023/12/07 17:53:33;;;;;;;6.68;3.55;;;17.50;71.40;;;;;;10465429;28;21053;-53
2023/12/07 17:58:35;;;;;;;10.02;4.30;;;17.60;71.60;;;;;;10469230;28;20813;-51
2023/12/07 18:03:37;;;;;;;8.80;3.97;;;17.50;71.60;;;;;;10467576;28;20080;-50
2023/12/07 18:08:41;;;;;;;5.97;2.97;;;17.40;71.50;;;;;;10468180;28;20155;-52
2023/12/07 18:13:43;;;;;;;8.02;3.45;;;17.20;72.30;;;;;;10459074;28;20131;-52
2023/12/07 18:18:44;;;;;;;7.85;3.45;;;17.20;72.20;;;;;;10462515;28;20060;-56
2023/12/07 18:23:48;;;;;;;7.70;4.30;;;17.20;72.00;;;;;;10465277;28;20114;-55
2023/12/07 18:28:50;;;;;;;12.57;4.00;;;17.30;72.20;;;;;;10460526;28;20528;-55
2023/12/07 18:33:52;;;;;;;7.20;3.60;;;17.40;72.10;;;;;;10461671;28;20399;-52
2023/12/07 18:38:55;;;;;;;7.33;3.73;;;17.60;72.10;;;;;;10466109;28;20822;-54
2023/12/07 18:43:57;;;;;;;5.90;3.55;;;17.80;71.50;;;;;;10457803;28;20044;-55
2023/12/07 18:48:59;;;;;;;7.13;3.95;;;17.80;71.40;;;;;;10453872;28;20099;-57
2023/12/07 18:54:03;;;;;;;9.30;3.58;;;18.00;71.10;;;;;;10457161;28;20045;-56
2023/12/07 18:59:06;;;;;;;5.28;3.17;;;18.00;71.20;;;;;;10459721;28;22588;-55
2023/12/07 19:04:08;;;;;;;5.93;2.80;;;18.20;71.40;;;;;;10457881;28;20834;-54
2023/12/07 19:09:13;;;;;;;3.60;2.05;;;18.20;71.30;;;;;;10460455;28;20048;-53
2023/12/07 19:14:15;;;;;;;4.75;3.38;;;18.20;71.60;;;;;;10452423;28;20169;-51
2023/12/07 19:19:18;;;;;;;6.70;2.53;;;18.20;71.50;;;;;;10460308;28;20048;-56
2023/12/07 19:24:21;;;;;;;4.45;1.60;;;18.20;71.90;;;;;;10458201;28;20157;-56
2023/12/07 19:29:23;;;;;;;3.67;2.20;;;18.20;72.00;;;;;;10455852;28;20781;-54
2023/12/07 19:34:26;;;;;;;5.57;2.63;;;18.20;72.10;;;;;;10450018;28;20106;-54
2023/12/07 19:39:33;;;;;;;3.03;1.95;;;18.20;72.10;;;;;;10449720;28;20052;-56
2023/12/07 19:44:35;;;;;;;2.05;1.50;;;18.20;72.10;;;;;;10447362;28;20056;-54
2023/12/07 19:49:37;;;;;;;2.45;1.73;;;18.20;72.30;;;;;;10451077;28;20072;-56
2023/12/07 19:54:40;;;;;;;6.37;2.67;;;18.20;72.20;;;;;;10452049;28;20562;-55
2023/12/07 19:59:42;;;;;;;3.13;2.05;;;18.20;72.00;;;;;;10446264;28;20498;-50
2023/12/07 20:04:44;;;;;;;5.60;2.37;;;18.20;72.00;;;;;;10454101;28;20826;-54
2023/12/07 20:09:47;;;;;;;3.78;1.65;;;18.20;72.00;;;;;;10451669;28;20048;-55
2023/12/07 20:14:50;;;;;;;12.40;1.83;;;18.20;72.00;;;;;;10445869;28;20553;-52
2023/12/07 20:19:52;;;;;;;4.97;2.17;;;18.20;72.00;;;;;;10455930;28;20053;-53
2023/12/07 20:24:58;;;;;;;5.00;2.33;;;18.10;71.90;;;;;;10450910;28;20139;-52
2023/12/07 20:30:00;;;;;;;6.38;2.17;;;18.10;71.80;;;;;;10454725;28;21256;-53
2023/12/07 20:35:02;;;;;;;9.88;2.60;;;18.00;72.10;;;;;;10453309;28;20163;-52
2023/12/07 20:40:07;;;;;;;14.82;3.47;;;18.00;72.00;;;;;;10456661;28;20518;-54
2023/12/07 20:45:10;;;;;;;9.13;3.05;;;18.00;71.90;;;;;;10446980;28;20839;-56
2023/12/07 20:50:12;;;;;;;;;;;18.00;71.90;;;;;;10446207;28;20400;-53
2023/12/07 20:55:16;;;;;;;9.90;2.75;;;18.10;71.90;;;;;;10456845;28;20664;-55
2023/12/07 21:00:18;;;;;;;9.32;3.35;;;18.10;71.90;;;;;;10457125;28;20080;-52
2023/12/07 21:05:20;;;;;;;4.43;2.40;;;18.10;71.70;;;;;;10456967;28;20057;-50
2023/12/07 21:10:24;;;;;;;10.77;2.40;;;18.10;71.60;;;;;;10453324;28;20143;-55
2023/12/07 21:15:27;;;;;;;6.20;1.95;;;18.10;71.70;;;;;;10453912;28;20090;-54
2023/12/07 21:20:29;;;;;;;10.35;3.15;;;18.10;71.60;;;;;;10455448;28;20503;-52
2023/12/07 21:25:33;;;;;;;4.47;1.83;;;18.10;71.50;;;;;;10452258;28;20045;-53
2023/12/07 21:30:38;;;;;;;10.98;2.42;;;18.10;71.80;;;;;;10462383;28;20044;-49
2023/12/07 21:35:40;;;;;;;9.00;2.25;;;18.00;71.90;;;;;;10460516;28;20044;-53
2023/12/07 21:40:44;;;;;;;3.75;2.25;;;18.10;71.90;;;;;;10456069;28;20942;-56
2023/12/07 21:45:46;;;;;;;8.32;1.90;;;18.00;71.80;;;;;;10450115;28;20053;-56
2023/12/07 21:50:47;;;;;;;8.10;1.90;;;18.00;72.50;;;;;;10463281;28;20084;-54
2023/12/07 21:55:51;;;;;;;11.67;2.77;;;18.00;72.00;;;;;;10456849;28;20147;-55
2023/12/07 22:00:53;;;;;;;7.50;2.60;;;18.00;72.00;;;;;;10464090;28;20521;-54
2023/12/07 22:05:55;;;;;;;9.63;2.78;;;17.90;72.00;;;;;;10462530;28;20084;-54
2023/12/07 22:10:58;;;;;;;7.15;2.17;;;17.90;72.00;;;;;;10464822;28;20067;-53
2023/12/07 22:16:03;;;;;;;9.15;2.30;;;17.90;72.00;;;;;;10464651;28;20087;-53
2023/12/07 22:21:05;;;;;;;7.28;2.47;;;17.90;71.90;;;;;;10467930;28;20079;-53
2023/12/07 22:26:09;;;;;;;5.15;2.55;;;17.90;72.00;;;;;;10465915;28;20048;-52
2023/12/07 22:31:11;;;;;;;6.80;2.60;;;17.90;72.00;;;;;;10458729;28;20059;-51
2023/12/07 22:36:14;;;;;;;4.53;2.53;;;17.80;71.90;;;;;;10462975;28;20137;-49
2023/12/07 22:41:18;;;;;;;10.30;2.55;;;17.80;71.80;;;;;;10460993;28;20121;-50
2023/12/07 22:46:20;;;;;;;5.70;2.20;;;17.80;72.00;;;;;;10458898;28;20057;-51
2023/12/07 22:51:22;;;;;;;;;;;17.80;72.00;;;;;;10463214;28;20048;-53
2023/12/07 22:56:25;;;;;;;6.55;2.47;;;17.70;72.00;;;;;;10466158;28;19928;-54
2023/12/07 23:01:27;;;;;;;4.43;1.83;;;17.70;72.00;;;;;;10457793;28;20080;-53
2023/12/07 23:06:29;;;;;;;3.83;1.50;;;17.70;72.00;;;;;;10457020;28;20087;-54
2023/12/07 23:11:33;;;;;;;6.30;1.90;;;17.70;72.20;;;;;;10458921;28;20057;-51
2023/12/07 23:16:35;;;;;;;4.72;2.38;;;17.70;72.20;;;;;;10458011;28;20099;-55
2023/12/07 23:21:37;;;;;;;5.05;2.80;;;17.60;72.20;;;;;;10467352;28;20060;-50
2023/12/07 23:26:43;;;;;;;5.30;2.13;;;17.60;72.30;;;;;;10464082;28;20033;-54
2023/12/07 23:31:45;;;;;;;4.03;2.75;;;17.60;72.30;;;;;;10457114;28;21292;-53
2023/12/07 23:36:49;;;;;;;8.85;2.65;;;17.60;72.30;;;;;;10459087;28;20075;-52
2023/12/07 23:41:52;;;;;;;3.25;2.25;;;17.50;72.10;;;;;;10466704;28;20047;-54
2023/12/07 23:46:54;;;;;;;3.33;2.20;;;17.50;72.20;;;;;;10460596;28;20082;-54
2023/12/07 23:51:57;;;;;;;4.47;2.33;;;17.50;72.20;;;;;;10457616;28;20567;-56
2023/12/07 23:57:00;;;;;;;;;;;17.60;72.30;;;;;;10457036;28;22521;-53
